Online Now
Guests 1
Members   0

24/7 FSX Server
IP: 71.135.74.145
@ KDEN until 11/27/20



Information and tools for flight simulation use only - NOT for real avaition

File Flight Plans Here

KDEN 250953Z 19011KT 10SM CLR M06/M10 A2995 RMK AO2 SLP159 T10561100KDEN 250900Z 2509/2612 20010KT P6SM SKC FM251500 18006KT P6SM SKC FM252000 13007KT P6SM SCT220 FM252200 08006KT P6SM SCT220 FM260100 21010KT P6SM FEW220
Aviation Digital Data Service (ADDS)



Other FSX servers